<?xml version="1.0" encoding="UTF-8" standalone="no" ?>
<gpx xmlns="http://www.topografix.com/GPX/1/1" xmlns:xsi="http://www.w3.org/2001/XMLSchema-instance" xsi:schemaLocation="http://www.topografix.com/GPX/1/1 http://www.topografix.com/GPX/1/1/gpx.xsd" version="1.1" creator="VisuGPX - https://www.visugpx.com">
  <metadata>
    <name>Activité Randonnée TwoNav</name>
    <desc><![CDATA[2022-08-18_202105.trk]]></desc>
  </metadata>
  <trk>
    <name><![CDATA[Activité Randonnée TwoNav_1]]></name>
    <trkseg>
      <trkpt lat="49.23657" lon="7.15187">
        <ele>372.5</ele>
        <time>2022-08-18T18:21:05Z</time>
      </trkpt>
      <trkpt lat="49.23657" lon="7.15187">
        <ele>372.5</ele>
        <time>2022-08-18T18:21:06Z</time>
      </trkpt>
      <trkpt lat="49.23657" lon="7.15187">
        <ele>372.5</ele>
        <time>2022-08-18T18:21:08Z</time>
      </trkpt>
      <trkpt lat="49.23657" lon="7.15187">
        <ele>372.5</ele>
        <time>2022-08-18T18:21:09Z</time>
      </trkpt>
      <trkpt lat="49.23657" lon="7.15187">
        <ele>372.5</ele>
        <time>2022-08-18T18:21:12Z</time>
      </trkpt>
      <trkpt lat="49.23657" lon="7.15187">
        <ele>372.5</ele>
        <time>2022-08-18T18:21:18Z</time>
      </trkpt>
      <trkpt lat="49.23656" lon="7.15187">
        <ele>372.5</ele>
        <time>2022-08-18T18:21:19Z</time>
      </trkpt>
      <trkpt lat="49.23656" lon="7.15187">
        <ele>372.5</ele>
        <time>2022-08-18T18:21:20Z</time>
      </trkpt>
      <trkpt lat="49.23656" lon="7.15187">
        <ele>372.5</ele>
        <time>2022-08-18T18:21:21Z</time>
      </trkpt>
      <trkpt lat="49.23656" lon="7.15187">
        <ele>372.5</ele>
        <time>2022-08-18T18:21:22Z</time>
      </trkpt>
      <trkpt lat="49.23656" lon="7.15188">
        <ele>372.5</ele>
        <time>2022-08-18T18:21:24Z</time>
      </trkpt>
      <trkpt lat="49.23656" lon="7.15188">
        <ele>372.5</ele>
        <time>2022-08-18T18:21:25Z</time>
      </trkpt>
      <trkpt lat="49.23657" lon="7.15189">
        <ele>372.4</ele>
        <time>2022-08-18T18:21:26Z</time>
      </trkpt>
      <trkpt lat="49.23648" lon="7.15194">
        <ele>372.2</ele>
        <time>2022-08-18T18:21:36Z</time>
      </trkpt>
      <trkpt lat="49.2364" lon="7.15184">
        <ele>372.1</ele>
        <time>2022-08-18T18:21:44Z</time>
      </trkpt>
      <trkpt lat="49.23633" lon="7.15165">
        <ele>372.2</ele>
        <time>2022-08-18T18:21:48Z</time>
      </trkpt>
      <trkpt lat="49.23627" lon="7.15149">
        <ele>372.2</ele>
        <time>2022-08-18T18:21:51Z</time>
      </trkpt>
      <trkpt lat="49.23622" lon="7.15134">
        <ele>372.2</ele>
        <time>2022-08-18T18:21:55Z</time>
      </trkpt>
      <trkpt lat="49.23617" lon="7.15119">
        <ele>372.3</ele>
        <time>2022-08-18T18:21:58Z</time>
      </trkpt>
      <trkpt lat="49.2361" lon="7.15105">
        <ele>372.3</ele>
        <time>2022-08-18T18:22:01Z</time>
      </trkpt>
      <trkpt lat="49.23604" lon="7.15094">
        <ele>372.5</ele>
        <time>2022-08-18T18:22:05Z</time>
      </trkpt>
      <trkpt lat="49.236" lon="7.15081">
        <ele>372.6</ele>
        <time>2022-08-18T18:22:08Z</time>
      </trkpt>
      <trkpt lat="49.23597" lon="7.15068">
        <ele>372.7</ele>
        <time>2022-08-18T18:22:11Z</time>
      </trkpt>
      <trkpt lat="49.2359" lon="7.15053">
        <ele>372.7</ele>
        <time>2022-08-18T18:22:16Z</time>
      </trkpt>
      <trkpt lat="49.23585" lon="7.15041">
        <ele>372.7</ele>
        <time>2022-08-18T18:22:19Z</time>
      </trkpt>
      <trkpt lat="49.23581" lon="7.15027">
        <ele>372.7</ele>
        <time>2022-08-18T18:22:23Z</time>
      </trkpt>
      <trkpt lat="49.23576" lon="7.1501">
        <ele>372.6</ele>
        <time>2022-08-18T18:22:27Z</time>
      </trkpt>
      <trkpt lat="49.23571" lon="7.14997">
        <ele>372.5</ele>
        <time>2022-08-18T18:22:31Z</time>
      </trkpt>
      <trkpt lat="49.23565" lon="7.14983">
        <ele>372.5</ele>
        <time>2022-08-18T18:22:36Z</time>
      </trkpt>
      <trkpt lat="49.23562" lon="7.14969">
        <ele>372.4</ele>
        <time>2022-08-18T18:22:40Z</time>
      </trkpt>
      <trkpt lat="49.23555" lon="7.14958">
        <ele>372.4</ele>
        <time>2022-08-18T18:22:44Z</time>
      </trkpt>
      <trkpt lat="49.23548" lon="7.14944">
        <ele>372.3</ele>
        <time>2022-08-18T18:22:47Z</time>
      </trkpt>
      <trkpt lat="49.23539" lon="7.1493">
        <ele>372.3</ele>
        <time>2022-08-18T18:22:50Z</time>
      </trkpt>
      <trkpt lat="49.23532" lon="7.14917">
        <ele>372.4</ele>
        <time>2022-08-18T18:22:53Z</time>
      </trkpt>
      <trkpt lat="49.23527" lon="7.14906">
        <ele>372.4</ele>
        <time>2022-08-18T18:22:56Z</time>
      </trkpt>
      <trkpt lat="49.23522" lon="7.14892">
        <ele>372.4</ele>
        <time>2022-08-18T18:22:59Z</time>
      </trkpt>
      <trkpt lat="49.23516" lon="7.14879">
        <ele>372.5</ele>
        <time>2022-08-18T18:23:02Z</time>
      </trkpt>
      <trkpt lat="49.23511" lon="7.14867">
        <ele>372.5</ele>
        <time>2022-08-18T18:23:05Z</time>
      </trkpt>
      <trkpt lat="49.23505" lon="7.14854">
        <ele>372.7</ele>
        <time>2022-08-18T18:23:08Z</time>
      </trkpt>
      <trkpt lat="49.235" lon="7.14843">
        <ele>372.8</ele>
        <time>2022-08-18T18:23:11Z</time>
      </trkpt>
      <trkpt lat="49.23493" lon="7.14827">
        <ele>373</ele>
        <time>2022-08-18T18:23:15Z</time>
      </trkpt>
      <trkpt lat="49.23488" lon="7.14814">
        <ele>373.2</ele>
        <time>2022-08-18T18:23:18Z</time>
      </trkpt>
      <trkpt lat="49.23482" lon="7.14802">
        <ele>373.3</ele>
        <time>2022-08-18T18:23:21Z</time>
      </trkpt>
      <trkpt lat="49.23476" lon="7.14788">
        <ele>373.5</ele>
        <time>2022-08-18T18:23:25Z</time>
      </trkpt>
      <trkpt lat="49.23471" lon="7.14775">
        <ele>373.7</ele>
        <time>2022-08-18T18:23:30Z</time>
      </trkpt>
      <trkpt lat="49.23465" lon="7.14764">
        <ele>373.8</ele>
        <time>2022-08-18T18:23:38Z</time>
      </trkpt>
      <trkpt lat="49.23458" lon="7.14754">
        <ele>373.9</ele>
        <time>2022-08-18T18:23:44Z</time>
      </trkpt>
      <trkpt lat="49.23452" lon="7.14742">
        <ele>374</ele>
        <time>2022-08-18T18:23:52Z</time>
      </trkpt>
      <trkpt lat="49.23449" lon="7.1473">
        <ele>374.1</ele>
        <time>2022-08-18T18:24:05Z</time>
      </trkpt>
      <trkpt lat="49.23448" lon="7.1473">
        <ele>374.1</ele>
        <time>2022-08-18T18:24:07Z</time>
      </trkpt>
      <trkpt lat="49.23443" lon="7.14718">
        <ele>373.9</ele>
        <time>2022-08-18T18:24:16Z</time>
      </trkpt>
      <trkpt lat="49.23436" lon="7.14706">
        <ele>373.4</ele>
        <time>2022-08-18T18:24:22Z</time>
      </trkpt>
      <trkpt lat="49.23429" lon="7.14692">
        <ele>372.9</ele>
        <time>2022-08-18T18:24:26Z</time>
      </trkpt>
      <trkpt lat="49.23423" lon="7.14679">
        <ele>372.5</ele>
        <time>2022-08-18T18:24:29Z</time>
      </trkpt>
      <trkpt lat="49.23415" lon="7.14664">
        <ele>371.8</ele>
        <time>2022-08-18T18:24:32Z</time>
      </trkpt>
      <trkpt lat="49.23406" lon="7.14648">
        <ele>371.1</ele>
        <time>2022-08-18T18:24:35Z</time>
      </trkpt>
      <trkpt lat="49.234" lon="7.14635">
        <ele>370.6</ele>
        <time>2022-08-18T18:24:37Z</time>
      </trkpt>
      <trkpt lat="49.23393" lon="7.14622">
        <ele>370</ele>
        <time>2022-08-18T18:24:39Z</time>
      </trkpt>
      <trkpt lat="49.23386" lon="7.1461">
        <ele>369.4</ele>
        <time>2022-08-18T18:24:41Z</time>
      </trkpt>
      <trkpt lat="49.23377" lon="7.14596">
        <ele>368.8</ele>
        <time>2022-08-18T18:24:43Z</time>
      </trkpt>
      <trkpt lat="49.2337" lon="7.1458">
        <ele>368.1</ele>
        <time>2022-08-18T18:24:45Z</time>
      </trkpt>
      <trkpt lat="49.23363" lon="7.14565">
        <ele>367.5</ele>
        <time>2022-08-18T18:24:47Z</time>
      </trkpt>
      <trkpt lat="49.23356" lon="7.14552">
        <ele>367</ele>
        <time>2022-08-18T18:24:49Z</time>
      </trkpt>
      <trkpt lat="49.2335" lon="7.14541">
        <ele>366.6</ele>
        <time>2022-08-18T18:24:51Z</time>
      </trkpt>
      <trkpt lat="49.23345" lon="7.14529">
        <ele>366.2</ele>
        <time>2022-08-18T18:24:53Z</time>
      </trkpt>
      <trkpt lat="49.23337" lon="7.14514">
        <ele>365.7</ele>
        <time>2022-08-18T18:24:56Z</time>
      </trkpt>
      <trkpt lat="49.23331" lon="7.14502">
        <ele>365.3</ele>
        <time>2022-08-18T18:24:58Z</time>
      </trkpt>
      <trkpt lat="49.23325" lon="7.14485">
        <ele>364.8</ele>
        <time>2022-08-18T18:25:01Z</time>
      </trkpt>
      <trkpt lat="49.23317" lon="7.14471">
        <ele>364.3</ele>
        <time>2022-08-18T18:25:04Z</time>
      </trkpt>
      <trkpt lat="49.2331" lon="7.14458">
        <ele>363.8</ele>
        <time>2022-08-18T18:25:07Z</time>
      </trkpt>
      <trkpt lat="49.23304" lon="7.14445">
        <ele>363.3</ele>
        <time>2022-08-18T18:25:10Z</time>
      </trkpt>
      <trkpt lat="49.23299" lon="7.14433">
        <ele>362.9</ele>
        <time>2022-08-18T18:25:13Z</time>
      </trkpt>
      <trkpt lat="49.23293" lon="7.14421">
        <ele>362.5</ele>
        <time>2022-08-18T18:25:16Z</time>
      </trkpt>
      <trkpt lat="49.23286" lon="7.14407">
        <ele>362.1</ele>
        <time>2022-08-18T18:25:19Z</time>
      </trkpt>
      <trkpt lat="49.23279" lon="7.14392">
        <ele>361.6</ele>
        <time>2022-08-18T18:25:22Z</time>
      </trkpt>
      <trkpt lat="49.23272" lon="7.1438">
        <ele>361.2</ele>
        <time>2022-08-18T18:25:25Z</time>
      </trkpt>
      <trkpt lat="49.23264" lon="7.1437">
        <ele>360.7</ele>
        <time>2022-08-18T18:25:28Z</time>
      </trkpt>
      <trkpt lat="49.23256" lon="7.14359">
        <ele>359.9</ele>
        <time>2022-08-18T18:25:32Z</time>
      </trkpt>
      <trkpt lat="49.23249" lon="7.1435">
        <ele>359.1</ele>
        <time>2022-08-18T18:25:35Z</time>
      </trkpt>
      <trkpt lat="49.23238" lon="7.1434">
        <ele>358.1</ele>
        <time>2022-08-18T18:25:37Z</time>
      </trkpt>
      <trkpt lat="49.23228" lon="7.14332">
        <ele>357.1</ele>
        <time>2022-08-18T18:25:39Z</time>
      </trkpt>
      <trkpt lat="49.23217" lon="7.14323">
        <ele>356.2</ele>
        <time>2022-08-18T18:25:41Z</time>
      </trkpt>
      <trkpt lat="49.23205" lon="7.14316">
        <ele>355.3</ele>
        <time>2022-08-18T18:25:43Z</time>
      </trkpt>
      <trkpt lat="49.23192" lon="7.14308">
        <ele>354.5</ele>
        <time>2022-08-18T18:25:45Z</time>
      </trkpt>
      <trkpt lat="49.23182" lon="7.143">
        <ele>353.9</ele>
        <time>2022-08-18T18:25:47Z</time>
      </trkpt>
      <trkpt lat="49.23173" lon="7.14294">
        <ele>353.4</ele>
        <time>2022-08-18T18:25:49Z</time>
      </trkpt>
      <trkpt lat="49.23162" lon="7.14287">
        <ele>353</ele>
        <time>2022-08-18T18:25:52Z</time>
      </trkpt>
      <trkpt lat="49.23153" lon="7.14278">
        <ele>352.5</ele>
        <time>2022-08-18T18:26:12Z</time>
      </trkpt>
      <trkpt lat="49.23143" lon="7.14272">
        <ele>352</ele>
        <time>2022-08-18T18:26:17Z</time>
      </trkpt>
      <trkpt lat="49.23135" lon="7.14265">
        <ele>351.7</ele>
        <time>2022-08-18T18:26:20Z</time>
      </trkpt>
      <trkpt lat="49.23125" lon="7.14259">
        <ele>351.3</ele>
        <time>2022-08-18T18:26:23Z</time>
      </trkpt>
      <trkpt lat="49.23114" lon="7.14253">
        <ele>350.9</ele>
        <time>2022-08-18T18:26:26Z</time>
      </trkpt>
      <trkpt lat="49.23102" lon="7.14249">
        <ele>350.4</ele>
        <time>2022-08-18T18:26:29Z</time>
      </trkpt>
      <trkpt lat="49.23092" lon="7.14246">
        <ele>350.1</ele>
        <time>2022-08-18T18:26:32Z</time>
      </trkpt>
      <trkpt lat="49.23092" lon="7.14239">
        <ele>350</ele>
        <time>2022-08-18T18:26:56Z</time>
      </trkpt>
      <trkpt lat="49.23092" lon="7.14239">
        <ele>350</ele>
        <time>2022-08-18T18:26:58Z</time>
      </trkpt>
      <trkpt lat="49.23092" lon="7.14239">
        <ele>350</ele>
        <time>2022-08-18T18:26:59Z</time>
      </trkpt>
      <trkpt lat="49.23091" lon="7.14239">
        <ele>350</ele>
        <time>2022-08-18T18:27:00Z</time>
      </trkpt>
      <trkpt lat="49.23091" lon="7.14239">
        <ele>350</ele>
        <time>2022-08-18T18:27:03Z</time>
      </trkpt>
      <trkpt lat="49.23091" lon="7.14239">
        <ele>350</ele>
        <time>2022-08-18T18:27:10Z</time>
      </trkpt>
      <trkpt lat="49.23091" lon="7.14238">
        <ele>350</ele>
        <time>2022-08-18T18:27:12Z</time>
      </trkpt>
      <trkpt lat="49.23091" lon="7.14238">
        <ele>349.9</ele>
        <time>2022-08-18T18:27:17Z</time>
      </trkpt>
      <trkpt lat="49.23091" lon="7.14238">
        <ele>349.9</ele>
        <time>2022-08-18T18:27:18Z</time>
      </trkpt>
      <trkpt lat="49.23091" lon="7.14238">
        <ele>349.9</ele>
        <time>2022-08-18T18:27:27Z</time>
      </trkpt>
      <trkpt lat="49.23091" lon="7.14238">
        <ele>349.9</ele>
        <time>2022-08-18T18:27:28Z</time>
      </trkpt>
      <trkpt lat="49.23091" lon="7.14237">
        <ele>349.9</ele>
        <time>2022-08-18T18:27:38Z</time>
      </trkpt>
      <trkpt lat="49.23091" lon="7.14239">
        <ele>349.9</ele>
        <time>2022-08-18T18:27:44Z</time>
      </trkpt>
      <trkpt lat="49.23091" lon="7.14239">
        <ele>349.9</ele>
        <time>2022-08-18T18:28:04Z</time>
      </trkpt>
      <trkpt lat="49.23091" lon="7.14239">
        <ele>349.9</ele>
        <time>2022-08-18T18:28:05Z</time>
      </trkpt>
      <trkpt lat="49.23091" lon="7.14239">
        <ele>349.9</ele>
        <time>2022-08-18T18:28:08Z</time>
      </trkpt>
      <trkpt lat="49.23091" lon="7.14239">
        <ele>349.9</ele>
        <time>2022-08-18T18:28:09Z</time>
      </trkpt>
      <trkpt lat="49.23091" lon="7.14239">
        <ele>349.9</ele>
        <time>2022-08-18T18:28:12Z</time>
      </trkpt>
      <trkpt lat="49.23091" lon="7.14239">
        <ele>349.9</ele>
        <time>2022-08-18T18:28:14Z</time>
      </trkpt>
      <trkpt lat="49.23091" lon="7.14238">
        <ele>349.8</ele>
        <time>2022-08-18T18:28:44Z</time>
      </trkpt>
      <trkpt lat="49.23088" lon="7.1424">
        <ele>349.8</ele>
        <time>2022-08-18T18:28:54Z</time>
      </trkpt>
      <trkpt lat="49.23088" lon="7.1424">
        <ele>349.8</ele>
        <time>2022-08-18T18:28:56Z</time>
      </trkpt>
      <trkpt lat="49.23079" lon="7.14237">
        <ele>349.7</ele>
        <time>2022-08-18T18:29:02Z</time>
      </trkpt>
      <trkpt lat="49.2307" lon="7.14231">
        <ele>349.5</ele>
        <time>2022-08-18T18:29:07Z</time>
      </trkpt>
      <trkpt lat="49.23061" lon="7.14223">
        <ele>349.4</ele>
        <time>2022-08-18T18:29:15Z</time>
      </trkpt>
      <trkpt lat="49.23052" lon="7.14218">
        <ele>349.2</ele>
        <time>2022-08-18T18:29:21Z</time>
      </trkpt>
      <trkpt lat="49.23045" lon="7.1421">
        <ele>349.1</ele>
        <time>2022-08-18T18:29:29Z</time>
      </trkpt>
      <trkpt lat="49.23038" lon="7.142">
        <ele>348.9</ele>
        <time>2022-08-18T18:29:35Z</time>
      </trkpt>
      <trkpt lat="49.23029" lon="7.14192">
        <ele>348.7</ele>
        <time>2022-08-18T18:29:43Z</time>
      </trkpt>
      <trkpt lat="49.2302" lon="7.14186">
        <ele>348.5</ele>
        <time>2022-08-18T18:29:49Z</time>
      </trkpt>
      <trkpt lat="49.23011" lon="7.1418">
        <ele>348.2</ele>
        <time>2022-08-18T18:29:59Z</time>
      </trkpt>
      <trkpt lat="49.23003" lon="7.14172">
        <ele>347.8</ele>
        <time>2022-08-18T18:30:06Z</time>
      </trkpt>
      <trkpt lat="49.22997" lon="7.14163">
        <ele>347.5</ele>
        <time>2022-08-18T18:30:11Z</time>
      </trkpt>
      <trkpt lat="49.22989" lon="7.14155">
        <ele>347</ele>
        <time>2022-08-18T18:30:19Z</time>
      </trkpt>
      <trkpt lat="49.22981" lon="7.14145">
        <ele>346.3</ele>
        <time>2022-08-18T18:30:25Z</time>
      </trkpt>
      <trkpt lat="49.22973" lon="7.14136">
        <ele>345.5</ele>
        <time>2022-08-18T18:30:32Z</time>
      </trkpt>
      <trkpt lat="49.22965" lon="7.14127">
        <ele>344.7</ele>
        <time>2022-08-18T18:30:39Z</time>
      </trkpt>
      <trkpt lat="49.22958" lon="7.14117">
        <ele>343.7</ele>
        <time>2022-08-18T18:30:45Z</time>
      </trkpt>
      <trkpt lat="49.22952" lon="7.14104">
        <ele>342.6</ele>
        <time>2022-08-18T18:30:52Z</time>
      </trkpt>
      <trkpt lat="49.22948" lon="7.1409">
        <ele>341.5</ele>
        <time>2022-08-18T18:31:02Z</time>
      </trkpt>
      <trkpt lat="49.22947" lon="7.14075">
        <ele>340.4</ele>
        <time>2022-08-18T18:31:09Z</time>
      </trkpt>
      <trkpt lat="49.22943" lon="7.14061">
        <ele>339.4</ele>
        <time>2022-08-18T18:31:14Z</time>
      </trkpt>
      <trkpt lat="49.2294" lon="7.14048">
        <ele>338.4</ele>
        <time>2022-08-18T18:31:19Z</time>
      </trkpt>
      <trkpt lat="49.22941" lon="7.14035">
        <ele>337.4</ele>
        <time>2022-08-18T18:31:25Z</time>
      </trkpt>
      <trkpt lat="49.22941" lon="7.14019">
        <ele>336.2</ele>
        <time>2022-08-18T18:31:32Z</time>
      </trkpt>
      <trkpt lat="49.22939" lon="7.14004">
        <ele>335.2</ele>
        <time>2022-08-18T18:31:39Z</time>
      </trkpt>
      <trkpt lat="49.22934" lon="7.13992">
        <ele>334.3</ele>
        <time>2022-08-18T18:31:46Z</time>
      </trkpt>
      <trkpt lat="49.22935" lon="7.13977">
        <ele>333.4</ele>
        <time>2022-08-18T18:31:55Z</time>
      </trkpt>
      <trkpt lat="49.22935" lon="7.13963">
        <ele>332.6</ele>
        <time>2022-08-18T18:32:04Z</time>
      </trkpt>
      <trkpt lat="49.22938" lon="7.1395">
        <ele>331.8</ele>
        <time>2022-08-18T18:32:11Z</time>
      </trkpt>
      <trkpt lat="49.22941" lon="7.13936">
        <ele>331.2</ele>
        <time>2022-08-18T18:32:19Z</time>
      </trkpt>
      <trkpt lat="49.22946" lon="7.13923">
        <ele>330.7</ele>
        <time>2022-08-18T18:32:27Z</time>
      </trkpt>
      <trkpt lat="49.22943" lon="7.13909">
        <ele>329.9</ele>
        <time>2022-08-18T18:32:34Z</time>
      </trkpt>
      <trkpt lat="49.22936" lon="7.13902">
        <ele>329</ele>
        <time>2022-08-18T18:32:40Z</time>
      </trkpt>
      <trkpt lat="49.2293" lon="7.13889">
        <ele>328</ele>
        <time>2022-08-18T18:32:48Z</time>
      </trkpt>
      <trkpt lat="49.22929" lon="7.13875">
        <ele>327</ele>
        <time>2022-08-18T18:32:55Z</time>
      </trkpt>
      <trkpt lat="49.22927" lon="7.13862">
        <ele>326.2</ele>
        <time>2022-08-18T18:33:01Z</time>
      </trkpt>
      <trkpt lat="49.22924" lon="7.13847">
        <ele>325.5</ele>
        <time>2022-08-18T18:33:10Z</time>
      </trkpt>
      <trkpt lat="49.22922" lon="7.13833">
        <ele>325.1</ele>
        <time>2022-08-18T18:33:18Z</time>
      </trkpt>
      <trkpt lat="49.22923" lon="7.13819">
        <ele>324.9</ele>
        <time>2022-08-18T18:33:28Z</time>
      </trkpt>
      <trkpt lat="49.22924" lon="7.13819">
        <ele>324.8</ele>
        <time>2022-08-18T18:33:31Z</time>
      </trkpt>
      <trkpt lat="49.22924" lon="7.13819">
        <ele>324.8</ele>
        <time>2022-08-18T18:33:34Z</time>
      </trkpt>
      <trkpt lat="49.22924" lon="7.13819">
        <ele>324.8</ele>
        <time>2022-08-18T18:33:35Z</time>
      </trkpt>
      <trkpt lat="49.22924" lon="7.13819">
        <ele>324.8</ele>
        <time>2022-08-18T18:33:49Z</time>
      </trkpt>
      <trkpt lat="49.22924" lon="7.13819">
        <ele>324.8</ele>
        <time>2022-08-18T18:33:50Z</time>
      </trkpt>
      <trkpt lat="49.22924" lon="7.13819">
        <ele>324.8</ele>
        <time>2022-08-18T18:33:51Z</time>
      </trkpt>
      <trkpt lat="49.22929" lon="7.13807">
        <ele>324.6</ele>
        <time>2022-08-18T18:34:00Z</time>
      </trkpt>
      <trkpt lat="49.22929" lon="7.13792">
        <ele>324.5</ele>
        <time>2022-08-18T18:34:10Z</time>
      </trkpt>
      <trkpt lat="49.22924" lon="7.1378">
        <ele>324.5</ele>
        <time>2022-08-18T18:34:18Z</time>
      </trkpt>
      <trkpt lat="49.22923" lon="7.13766">
        <ele>324.7</ele>
        <time>2022-08-18T18:34:29Z</time>
      </trkpt>
      <trkpt lat="49.22923" lon="7.13752">
        <ele>325.3</ele>
        <time>2022-08-18T18:34:37Z</time>
      </trkpt>
      <trkpt lat="49.22928" lon="7.1374">
        <ele>325.9</ele>
        <time>2022-08-18T18:34:44Z</time>
      </trkpt>
      <trkpt lat="49.22931" lon="7.13727">
        <ele>326.6</ele>
        <time>2022-08-18T18:34:54Z</time>
      </trkpt>
      <trkpt lat="49.22934" lon="7.13713">
        <ele>327.3</ele>
        <time>2022-08-18T18:35:01Z</time>
      </trkpt>
      <trkpt lat="49.22938" lon="7.137">
        <ele>328.1</ele>
        <time>2022-08-18T18:35:09Z</time>
      </trkpt>
      <trkpt lat="49.22942" lon="7.13686">
        <ele>328.8</ele>
        <time>2022-08-18T18:35:18Z</time>
      </trkpt>
      <trkpt lat="49.22947" lon="7.13672">
        <ele>329.6</ele>
        <time>2022-08-18T18:35:27Z</time>
      </trkpt>
      <trkpt lat="49.2295" lon="7.13657">
        <ele>330.5</ele>
        <time>2022-08-18T18:35:36Z</time>
      </trkpt>
      <trkpt lat="49.22953" lon="7.13644">
        <ele>331.2</ele>
        <time>2022-08-18T18:35:43Z</time>
      </trkpt>
      <trkpt lat="49.22958" lon="7.13633">
        <ele>331.9</ele>
        <time>2022-08-18T18:35:53Z</time>
      </trkpt>
      <trkpt lat="49.22962" lon="7.1362">
        <ele>332.7</ele>
        <time>2022-08-18T18:36:01Z</time>
      </trkpt>
      <trkpt lat="49.22967" lon="7.13607">
        <ele>333.6</ele>
        <time>2022-08-18T18:36:09Z</time>
      </trkpt>
      <trkpt lat="49.2297" lon="7.13594">
        <ele>334.4</ele>
        <time>2022-08-18T18:36:16Z</time>
      </trkpt>
      <trkpt lat="49.22976" lon="7.13582">
        <ele>335.3</ele>
        <time>2022-08-18T18:36:23Z</time>
      </trkpt>
      <trkpt lat="49.22984" lon="7.13573">
        <ele>336.2</ele>
        <time>2022-08-18T18:36:31Z</time>
      </trkpt>
      <trkpt lat="49.22992" lon="7.13564">
        <ele>337.1</ele>
        <time>2022-08-18T18:36:38Z</time>
      </trkpt>
      <trkpt lat="49.22997" lon="7.1355">
        <ele>338.1</ele>
        <time>2022-08-18T18:36:46Z</time>
      </trkpt>
      <trkpt lat="49.23001" lon="7.13537">
        <ele>338.9</ele>
        <time>2022-08-18T18:36:53Z</time>
      </trkpt>
      <trkpt lat="49.23009" lon="7.13527">
        <ele>339.7</ele>
        <time>2022-08-18T18:37:01Z</time>
      </trkpt>
      <trkpt lat="49.23019" lon="7.13522">
        <ele>340.1</ele>
        <time>2022-08-18T18:37:07Z</time>
      </trkpt>
      <trkpt lat="49.23022" lon="7.13506">
        <ele>340.4</ele>
        <time>2022-08-18T18:37:14Z</time>
      </trkpt>
      <trkpt lat="49.23027" lon="7.13495">
        <ele>340.7</ele>
        <time>2022-08-18T18:37:20Z</time>
      </trkpt>
      <trkpt lat="49.23036" lon="7.13489">
        <ele>341.2</ele>
        <time>2022-08-18T18:37:26Z</time>
      </trkpt>
      <trkpt lat="49.23044" lon="7.13479">
        <ele>341.7</ele>
        <time>2022-08-18T18:37:34Z</time>
      </trkpt>
      <trkpt lat="49.23052" lon="7.13469">
        <ele>342.4</ele>
        <time>2022-08-18T18:37:41Z</time>
      </trkpt>
      <trkpt lat="49.23056" lon="7.13456">
        <ele>343.1</ele>
        <time>2022-08-18T18:37:49Z</time>
      </trkpt>
      <trkpt lat="49.2306" lon="7.13441">
        <ele>343.9</ele>
        <time>2022-08-18T18:37:56Z</time>
      </trkpt>
      <trkpt lat="49.23064" lon="7.13427">
        <ele>344.6</ele>
        <time>2022-08-18T18:38:03Z</time>
      </trkpt>
      <trkpt lat="49.2307" lon="7.13416">
        <ele>345.4</ele>
        <time>2022-08-18T18:38:09Z</time>
      </trkpt>
      <trkpt lat="49.23078" lon="7.13404">
        <ele>346.2</ele>
        <time>2022-08-18T18:38:17Z</time>
      </trkpt>
      <trkpt lat="49.23089" lon="7.13404">
        <ele>347.1</ele>
        <time>2022-08-18T18:38:25Z</time>
      </trkpt>
      <trkpt lat="49.23091" lon="7.13391">
        <ele>347.8</ele>
        <time>2022-08-18T18:38:30Z</time>
      </trkpt>
      <trkpt lat="49.23093" lon="7.13375">
        <ele>348.6</ele>
        <time>2022-08-18T18:38:36Z</time>
      </trkpt>
      <trkpt lat="49.23098" lon="7.13362">
        <ele>349.4</ele>
        <time>2022-08-18T18:38:42Z</time>
      </trkpt>
      <trkpt lat="49.23104" lon="7.13349">
        <ele>350.2</ele>
        <time>2022-08-18T18:38:48Z</time>
      </trkpt>
      <trkpt lat="49.23105" lon="7.13335">
        <ele>350.8</ele>
        <time>2022-08-18T18:38:53Z</time>
      </trkpt>
      <trkpt lat="49.23107" lon="7.13322">
        <ele>351.5</ele>
        <time>2022-08-18T18:38:59Z</time>
      </trkpt>
      <trkpt lat="49.23112" lon="7.13309">
        <ele>352.1</ele>
        <time>2022-08-18T18:39:05Z</time>
      </trkpt>
      <trkpt lat="49.23119" lon="7.13299">
        <ele>352.8</ele>
        <time>2022-08-18T18:39:11Z</time>
      </trkpt>
      <trkpt lat="49.23124" lon="7.13287">
        <ele>353.4</ele>
        <time>2022-08-18T18:39:17Z</time>
      </trkpt>
      <trkpt lat="49.23132" lon="7.1328">
        <ele>354</ele>
        <time>2022-08-18T18:39:23Z</time>
      </trkpt>
      <trkpt lat="49.23139" lon="7.13269">
        <ele>354.7</ele>
        <time>2022-08-18T18:39:30Z</time>
      </trkpt>
      <trkpt lat="49.23145" lon="7.13258">
        <ele>355.3</ele>
        <time>2022-08-18T18:39:37Z</time>
      </trkpt>
      <trkpt lat="49.2315" lon="7.13244">
        <ele>355.9</ele>
        <time>2022-08-18T18:39:44Z</time>
      </trkpt>
      <trkpt lat="49.23152" lon="7.13227">
        <ele>356.7</ele>
        <time>2022-08-18T18:39:51Z</time>
      </trkpt>
      <trkpt lat="49.23155" lon="7.13214">
        <ele>357.4</ele>
        <time>2022-08-18T18:39:57Z</time>
      </trkpt>
      <trkpt lat="49.23159" lon="7.132">
        <ele>358</ele>
        <time>2022-08-18T18:40:04Z</time>
      </trkpt>
      <trkpt lat="49.23168" lon="7.13193">
        <ele>358.7</ele>
        <time>2022-08-18T18:40:10Z</time>
      </trkpt>
      <trkpt lat="49.23175" lon="7.13183">
        <ele>359.3</ele>
        <time>2022-08-18T18:40:19Z</time>
      </trkpt>
      <trkpt lat="49.23178" lon="7.13168">
        <ele>359.9</ele>
        <time>2022-08-18T18:40:26Z</time>
      </trkpt>
      <trkpt lat="49.23181" lon="7.13154">
        <ele>360.5</ele>
        <time>2022-08-18T18:40:32Z</time>
      </trkpt>
      <trkpt lat="49.23185" lon="7.1314">
        <ele>361.1</ele>
        <time>2022-08-18T18:40:39Z</time>
      </trkpt>
      <trkpt lat="49.23187" lon="7.13126">
        <ele>361.7</ele>
        <time>2022-08-18T18:40:45Z</time>
      </trkpt>
      <trkpt lat="49.23192" lon="7.13111">
        <ele>362.4</ele>
        <time>2022-08-18T18:40:52Z</time>
      </trkpt>
      <trkpt lat="49.23196" lon="7.13097">
        <ele>363</ele>
        <time>2022-08-18T18:41:00Z</time>
      </trkpt>
      <trkpt lat="49.23205" lon="7.13091">
        <ele>363.6</ele>
        <time>2022-08-18T18:41:07Z</time>
      </trkpt>
      <trkpt lat="49.2321" lon="7.13078">
        <ele>364.2</ele>
        <time>2022-08-18T18:41:13Z</time>
      </trkpt>
      <trkpt lat="49.23218" lon="7.13072">
        <ele>365.3</ele>
        <time>2022-08-18T18:41:20Z</time>
      </trkpt>
      <trkpt lat="49.23227" lon="7.13074">
        <ele>366</ele>
        <time>2022-08-18T18:41:27Z</time>
      </trkpt>
      <trkpt lat="49.23237" lon="7.13075">
        <ele>366.6</ele>
        <time>2022-08-18T18:41:35Z</time>
      </trkpt>
      <trkpt lat="49.23247" lon="7.13075">
        <ele>367.1</ele>
        <time>2022-08-18T18:41:43Z</time>
      </trkpt>
      <trkpt lat="49.23257" lon="7.13075">
        <ele>367.7</ele>
        <time>2022-08-18T18:41:50Z</time>
      </trkpt>
      <trkpt lat="49.23267" lon="7.13076">
        <ele>368.3</ele>
        <time>2022-08-18T18:41:56Z</time>
      </trkpt>
      <trkpt lat="49.23275" lon="7.13072">
        <ele>368.7</ele>
        <time>2022-08-18T18:42:03Z</time>
      </trkpt>
      <trkpt lat="49.23284" lon="7.13076">
        <ele>368.9</ele>
        <time>2022-08-18T18:42:10Z</time>
      </trkpt>
      <trkpt lat="49.23294" lon="7.13078">
        <ele>369.1</ele>
        <time>2022-08-18T18:42:15Z</time>
      </trkpt>
      <trkpt lat="49.23302" lon="7.13085">
        <ele>369.5</ele>
        <time>2022-08-18T18:42:21Z</time>
      </trkpt>
      <trkpt lat="49.23312" lon="7.13087">
        <ele>369.9</ele>
        <time>2022-08-18T18:42:30Z</time>
      </trkpt>
      <trkpt lat="49.23321" lon="7.13085">
        <ele>370.3</ele>
        <time>2022-08-18T18:42:36Z</time>
      </trkpt>
      <trkpt lat="49.2333" lon="7.13089">
        <ele>370.7</ele>
        <time>2022-08-18T18:42:44Z</time>
      </trkpt>
      <trkpt lat="49.23339" lon="7.13084">
        <ele>371</ele>
        <time>2022-08-18T18:42:51Z</time>
      </trkpt>
      <trkpt lat="49.23349" lon="7.13086">
        <ele>371.5</ele>
        <time>2022-08-18T18:42:58Z</time>
      </trkpt>
      <trkpt lat="49.23359" lon="7.13087">
        <ele>371.9</ele>
        <time>2022-08-18T18:43:04Z</time>
      </trkpt>
      <trkpt lat="49.23369" lon="7.13091">
        <ele>372.3</ele>
        <time>2022-08-18T18:43:11Z</time>
      </trkpt>
      <trkpt lat="49.23378" lon="7.13091">
        <ele>372.7</ele>
        <time>2022-08-18T18:43:19Z</time>
      </trkpt>
      <trkpt lat="49.23387" lon="7.13092">
        <ele>373.1</ele>
        <time>2022-08-18T18:43:26Z</time>
      </trkpt>
      <trkpt lat="49.23397" lon="7.13091">
        <ele>373.6</ele>
        <time>2022-08-18T18:43:32Z</time>
      </trkpt>
      <trkpt lat="49.23407" lon="7.13091">
        <ele>374</ele>
        <time>2022-08-18T18:43:36Z</time>
      </trkpt>
      <trkpt lat="49.23417" lon="7.13094">
        <ele>374.4</ele>
        <time>2022-08-18T18:43:40Z</time>
      </trkpt>
      <trkpt lat="49.23427" lon="7.13098">
        <ele>374.7</ele>
        <time>2022-08-18T18:43:44Z</time>
      </trkpt>
      <trkpt lat="49.23438" lon="7.13101">
        <ele>374.9</ele>
        <time>2022-08-18T18:43:48Z</time>
      </trkpt>
      <trkpt lat="49.23447" lon="7.13097">
        <ele>374.9</ele>
        <time>2022-08-18T18:43:52Z</time>
      </trkpt>
      <trkpt lat="49.23456" lon="7.13094">
        <ele>375</ele>
        <time>2022-08-18T18:43:56Z</time>
      </trkpt>
      <trkpt lat="49.23467" lon="7.13094">
        <ele>375.1</ele>
        <time>2022-08-18T18:44:01Z</time>
      </trkpt>
      <trkpt lat="49.23477" lon="7.13088">
        <ele>375.2</ele>
        <time>2022-08-18T18:44:09Z</time>
      </trkpt>
      <trkpt lat="49.23487" lon="7.13086">
        <ele>375.3</ele>
        <time>2022-08-18T18:44:14Z</time>
      </trkpt>
      <trkpt lat="49.23496" lon="7.13082">
        <ele>375.4</ele>
        <time>2022-08-18T18:44:18Z</time>
      </trkpt>
      <trkpt lat="49.23505" lon="7.13082">
        <ele>375.6</ele>
        <time>2022-08-18T18:44:26Z</time>
      </trkpt>
      <trkpt lat="49.23515" lon="7.13083">
        <ele>375.6</ele>
        <time>2022-08-18T18:44:33Z</time>
      </trkpt>
      <trkpt lat="49.23518" lon="7.13096">
        <ele>375.3</ele>
        <time>2022-08-18T18:44:38Z</time>
      </trkpt>
      <trkpt lat="49.23518" lon="7.13099">
        <ele>375.3</ele>
        <time>2022-08-18T18:44:44Z</time>
      </trkpt>
      <trkpt lat="49.23518" lon="7.13099">
        <ele>375.3</ele>
        <time>2022-08-18T18:44:45Z</time>
      </trkpt>
      <trkpt lat="49.23518" lon="7.13098">
        <ele>375.2</ele>
        <time>2022-08-18T18:44:47Z</time>
      </trkpt>
      <trkpt lat="49.23518" lon="7.13098">
        <ele>375.2</ele>
        <time>2022-08-18T18:44:52Z</time>
      </trkpt>
      <trkpt lat="49.23518" lon="7.13091">
        <ele>375.1</ele>
        <time>2022-08-18T18:45:11Z</time>
      </trkpt>
      <trkpt lat="49.23518" lon="7.1309">
        <ele>375.1</ele>
        <time>2022-08-18T18:45:12Z</time>
      </trkpt>
      <trkpt lat="49.23513" lon="7.13103">
        <ele>374.9</ele>
        <time>2022-08-18T18:45:35Z</time>
      </trkpt>
      <trkpt lat="49.23506" lon="7.13114">
        <ele>374.7</ele>
        <time>2022-08-18T18:45:41Z</time>
      </trkpt>
      <trkpt lat="49.23498" lon="7.13123">
        <ele>374.5</ele>
        <time>2022-08-18T18:45:45Z</time>
      </trkpt>
      <trkpt lat="49.23489" lon="7.13134">
        <ele>374.2</ele>
        <time>2022-08-18T18:45:49Z</time>
      </trkpt>
      <trkpt lat="49.23481" lon="7.13145">
        <ele>374.1</ele>
        <time>2022-08-18T18:45:53Z</time>
      </trkpt>
      <trkpt lat="49.23476" lon="7.13159">
        <ele>374</ele>
        <time>2022-08-18T18:45:57Z</time>
      </trkpt>
      <trkpt lat="49.2347" lon="7.13173">
        <ele>373.9</ele>
        <time>2022-08-18T18:46:01Z</time>
      </trkpt>
      <trkpt lat="49.23465" lon="7.13185">
        <ele>373.8</ele>
        <time>2022-08-18T18:46:05Z</time>
      </trkpt>
      <trkpt lat="49.23457" lon="7.13194">
        <ele>373.7</ele>
        <time>2022-08-18T18:46:09Z</time>
      </trkpt>
      <trkpt lat="49.23451" lon="7.13206">
        <ele>373.6</ele>
        <time>2022-08-18T18:46:15Z</time>
      </trkpt>
      <trkpt lat="49.23445" lon="7.13219">
        <ele>373.5</ele>
        <time>2022-08-18T18:46:21Z</time>
      </trkpt>
      <trkpt lat="49.2344" lon="7.13233">
        <ele>373.5</ele>
        <time>2022-08-18T18:46:25Z</time>
      </trkpt>
      <trkpt lat="49.23432" lon="7.13246">
        <ele>373.4</ele>
        <time>2022-08-18T18:46:29Z</time>
      </trkpt>
      <trkpt lat="49.23426" lon="7.13262">
        <ele>373.3</ele>
        <time>2022-08-18T18:46:33Z</time>
      </trkpt>
      <trkpt lat="49.23421" lon="7.13275">
        <ele>373.1</ele>
        <time>2022-08-18T18:46:36Z</time>
      </trkpt>
      <trkpt lat="49.23417" lon="7.13287">
        <ele>373</ele>
        <time>2022-08-18T18:46:39Z</time>
      </trkpt>
      <trkpt lat="49.23414" lon="7.13303">
        <ele>372.8</ele>
        <time>2022-08-18T18:46:43Z</time>
      </trkpt>
      <trkpt lat="49.23411" lon="7.13318">
        <ele>372.7</ele>
        <time>2022-08-18T18:46:47Z</time>
      </trkpt>
      <trkpt lat="49.23408" lon="7.13335">
        <ele>372.6</ele>
        <time>2022-08-18T18:46:52Z</time>
      </trkpt>
      <trkpt lat="49.23406" lon="7.1335">
        <ele>372.5</ele>
        <time>2022-08-18T18:46:55Z</time>
      </trkpt>
      <trkpt lat="49.23404" lon="7.13366">
        <ele>372.4</ele>
        <time>2022-08-18T18:46:58Z</time>
      </trkpt>
      <trkpt lat="49.23403" lon="7.1338">
        <ele>372.3</ele>
        <time>2022-08-18T18:47:01Z</time>
      </trkpt>
      <trkpt lat="49.234" lon="7.13399">
        <ele>372.2</ele>
        <time>2022-08-18T18:47:07Z</time>
      </trkpt>
      <trkpt lat="49.23398" lon="7.13413">
        <ele>372.1</ele>
        <time>2022-08-18T18:47:09Z</time>
      </trkpt>
      <trkpt lat="49.23394" lon="7.13432">
        <ele>371.9</ele>
        <time>2022-08-18T18:47:12Z</time>
      </trkpt>
      <trkpt lat="49.23393" lon="7.13449">
        <ele>371.8</ele>
        <time>2022-08-18T18:47:15Z</time>
      </trkpt>
      <trkpt lat="49.23391" lon="7.13464">
        <ele>371.7</ele>
        <time>2022-08-18T18:47:18Z</time>
      </trkpt>
      <trkpt lat="49.2339" lon="7.13478">
        <ele>371.6</ele>
        <time>2022-08-18T18:47:21Z</time>
      </trkpt>
      <trkpt lat="49.23388" lon="7.13494">
        <ele>371.6</ele>
        <time>2022-08-18T18:47:25Z</time>
      </trkpt>
      <trkpt lat="49.23385" lon="7.1351">
        <ele>371.6</ele>
        <time>2022-08-18T18:47:29Z</time>
      </trkpt>
      <trkpt lat="49.23383" lon="7.13525">
        <ele>371.6</ele>
        <time>2022-08-18T18:47:32Z</time>
      </trkpt>
      <trkpt lat="49.23382" lon="7.1354">
        <ele>371.6</ele>
        <time>2022-08-18T18:47:35Z</time>
      </trkpt>
      <trkpt lat="49.23384" lon="7.1356">
        <ele>371.5</ele>
        <time>2022-08-18T18:47:39Z</time>
      </trkpt>
      <trkpt lat="49.23387" lon="7.13576">
        <ele>371.4</ele>
        <time>2022-08-18T18:47:42Z</time>
      </trkpt>
      <trkpt lat="49.23387" lon="7.13593">
        <ele>371.3</ele>
        <time>2022-08-18T18:47:46Z</time>
      </trkpt>
      <trkpt lat="49.2339" lon="7.13606">
        <ele>371.2</ele>
        <time>2022-08-18T18:47:50Z</time>
      </trkpt>
      <trkpt lat="49.2339" lon="7.13621">
        <ele>371</ele>
        <time>2022-08-18T18:47:53Z</time>
      </trkpt>
      <trkpt lat="49.23391" lon="7.13636">
        <ele>370.9</ele>
        <time>2022-08-18T18:47:57Z</time>
      </trkpt>
      <trkpt lat="49.23392" lon="7.13653">
        <ele>370.8</ele>
        <time>2022-08-18T18:48:02Z</time>
      </trkpt>
      <trkpt lat="49.23394" lon="7.1367">
        <ele>370.7</ele>
        <time>2022-08-18T18:48:06Z</time>
      </trkpt>
      <trkpt lat="49.23393" lon="7.13685">
        <ele>370.7</ele>
        <time>2022-08-18T18:48:10Z</time>
      </trkpt>
      <trkpt lat="49.23395" lon="7.13699">
        <ele>370.7</ele>
        <time>2022-08-18T18:48:14Z</time>
      </trkpt>
      <trkpt lat="49.23395" lon="7.13717">
        <ele>370.9</ele>
        <time>2022-08-18T18:48:18Z</time>
      </trkpt>
      <trkpt lat="49.23393" lon="7.13734">
        <ele>371</ele>
        <time>2022-08-18T18:48:22Z</time>
      </trkpt>
      <trkpt lat="49.23395" lon="7.13751">
        <ele>371.1</ele>
        <time>2022-08-18T18:48:27Z</time>
      </trkpt>
      <trkpt lat="49.23397" lon="7.13767">
        <ele>371.2</ele>
        <time>2022-08-18T18:48:32Z</time>
      </trkpt>
      <trkpt lat="49.234" lon="7.13781">
        <ele>371.3</ele>
        <time>2022-08-18T18:48:35Z</time>
      </trkpt>
      <trkpt lat="49.234" lon="7.13796">
        <ele>371.4</ele>
        <time>2022-08-18T18:48:38Z</time>
      </trkpt>
      <trkpt lat="49.23402" lon="7.1381">
        <ele>371.5</ele>
        <time>2022-08-18T18:48:41Z</time>
      </trkpt>
      <trkpt lat="49.23405" lon="7.13823">
        <ele>371.7</ele>
        <time>2022-08-18T18:48:46Z</time>
      </trkpt>
      <trkpt lat="49.23408" lon="7.13837">
        <ele>371.9</ele>
        <time>2022-08-18T18:48:50Z</time>
      </trkpt>
      <trkpt lat="49.2341" lon="7.13851">
        <ele>372.1</ele>
        <time>2022-08-18T18:48:53Z</time>
      </trkpt>
      <trkpt lat="49.23412" lon="7.13865">
        <ele>372.3</ele>
        <time>2022-08-18T18:48:56Z</time>
      </trkpt>
      <trkpt lat="49.23414" lon="7.1388">
        <ele>372.5</ele>
        <time>2022-08-18T18:48:59Z</time>
      </trkpt>
      <trkpt lat="49.23416" lon="7.13896">
        <ele>372.7</ele>
        <time>2022-08-18T18:49:03Z</time>
      </trkpt>
      <trkpt lat="49.23418" lon="7.1391">
        <ele>372.9</ele>
        <time>2022-08-18T18:49:07Z</time>
      </trkpt>
      <trkpt lat="49.2342" lon="7.13925">
        <ele>373.1</ele>
        <time>2022-08-18T18:49:11Z</time>
      </trkpt>
      <trkpt lat="49.23422" lon="7.13941">
        <ele>373.2</ele>
        <time>2022-08-18T18:49:15Z</time>
      </trkpt>
      <trkpt lat="49.23424" lon="7.13955">
        <ele>373.4</ele>
        <time>2022-08-18T18:49:20Z</time>
      </trkpt>
      <trkpt lat="49.23426" lon="7.1397">
        <ele>373.6</ele>
        <time>2022-08-18T18:49:31Z</time>
      </trkpt>
      <trkpt lat="49.23427" lon="7.13984">
        <ele>373.8</ele>
        <time>2022-08-18T18:49:39Z</time>
      </trkpt>
      <trkpt lat="49.2343" lon="7.13998">
        <ele>374</ele>
        <time>2022-08-18T18:49:46Z</time>
      </trkpt>
      <trkpt lat="49.23433" lon="7.14012">
        <ele>374.2</ele>
        <time>2022-08-18T18:49:53Z</time>
      </trkpt>
      <trkpt lat="49.23434" lon="7.14027">
        <ele>374.4</ele>
        <time>2022-08-18T18:50:01Z</time>
      </trkpt>
      <trkpt lat="49.23437" lon="7.1404">
        <ele>374.5</ele>
        <time>2022-08-18T18:50:08Z</time>
      </trkpt>
      <trkpt lat="49.23439" lon="7.14054">
        <ele>374.5</ele>
        <time>2022-08-18T18:50:16Z</time>
      </trkpt>
      <trkpt lat="49.23443" lon="7.14067">
        <ele>374.6</ele>
        <time>2022-08-18T18:50:23Z</time>
      </trkpt>
      <trkpt lat="49.23445" lon="7.14082">
        <ele>374.6</ele>
        <time>2022-08-18T18:50:29Z</time>
      </trkpt>
      <trkpt lat="49.23449" lon="7.14096">
        <ele>374.6</ele>
        <time>2022-08-18T18:50:33Z</time>
      </trkpt>
      <trkpt lat="49.23453" lon="7.14111">
        <ele>374.7</ele>
        <time>2022-08-18T18:50:37Z</time>
      </trkpt>
      <trkpt lat="49.23458" lon="7.14123">
        <ele>374.7</ele>
        <time>2022-08-18T18:50:43Z</time>
      </trkpt>
      <trkpt lat="49.23462" lon="7.14136">
        <ele>374.8</ele>
        <time>2022-08-18T18:50:50Z</time>
      </trkpt>
      <trkpt lat="49.23466" lon="7.14149">
        <ele>374.9</ele>
        <time>2022-08-18T18:50:58Z</time>
      </trkpt>
      <trkpt lat="49.2347" lon="7.14163">
        <ele>374.9</ele>
        <time>2022-08-18T18:51:04Z</time>
      </trkpt>
      <trkpt lat="49.23474" lon="7.14176">
        <ele>375</ele>
        <time>2022-08-18T18:51:13Z</time>
      </trkpt>
      <trkpt lat="49.23478" lon="7.14188">
        <ele>375</ele>
        <time>2022-08-18T18:51:20Z</time>
      </trkpt>
      <trkpt lat="49.23482" lon="7.14202">
        <ele>375.1</ele>
        <time>2022-08-18T18:51:26Z</time>
      </trkpt>
      <trkpt lat="49.23488" lon="7.14213">
        <ele>375.2</ele>
        <time>2022-08-18T18:51:33Z</time>
      </trkpt>
      <trkpt lat="49.23493" lon="7.14227">
        <ele>375.3</ele>
        <time>2022-08-18T18:51:40Z</time>
      </trkpt>
      <trkpt lat="49.23497" lon="7.1424">
        <ele>375.4</ele>
        <time>2022-08-18T18:51:47Z</time>
      </trkpt>
      <trkpt lat="49.235" lon="7.14255">
        <ele>375.5</ele>
        <time>2022-08-18T18:51:56Z</time>
      </trkpt>
      <trkpt lat="49.23505" lon="7.14267">
        <ele>375.6</ele>
        <time>2022-08-18T18:52:02Z</time>
      </trkpt>
      <trkpt lat="49.2351" lon="7.1428">
        <ele>375.7</ele>
        <time>2022-08-18T18:52:08Z</time>
      </trkpt>
      <trkpt lat="49.23514" lon="7.14294">
        <ele>375.9</ele>
        <time>2022-08-18T18:52:16Z</time>
      </trkpt>
      <trkpt lat="49.23518" lon="7.14308">
        <ele>376</ele>
        <time>2022-08-18T18:52:24Z</time>
      </trkpt>
      <trkpt lat="49.23522" lon="7.14321">
        <ele>376.2</ele>
        <time>2022-08-18T18:52:31Z</time>
      </trkpt>
      <trkpt lat="49.23528" lon="7.14335">
        <ele>376.3</ele>
        <time>2022-08-18T18:52:39Z</time>
      </trkpt>
      <trkpt lat="49.23532" lon="7.14348">
        <ele>376.5</ele>
        <time>2022-08-18T18:52:44Z</time>
      </trkpt>
      <trkpt lat="49.23538" lon="7.14362">
        <ele>376.6</ele>
        <time>2022-08-18T18:52:49Z</time>
      </trkpt>
      <trkpt lat="49.23541" lon="7.14375">
        <ele>376.8</ele>
        <time>2022-08-18T18:52:53Z</time>
      </trkpt>
      <trkpt lat="49.23546" lon="7.14389">
        <ele>377</ele>
        <time>2022-08-18T18:52:57Z</time>
      </trkpt>
      <trkpt lat="49.23551" lon="7.14405">
        <ele>377.2</ele>
        <time>2022-08-18T18:53:01Z</time>
      </trkpt>
      <trkpt lat="49.23556" lon="7.14421">
        <ele>377.4</ele>
        <time>2022-08-18T18:53:05Z</time>
      </trkpt>
      <trkpt lat="49.23562" lon="7.14436">
        <ele>377.7</ele>
        <time>2022-08-18T18:53:09Z</time>
      </trkpt>
      <trkpt lat="49.23565" lon="7.1445">
        <ele>377.9</ele>
        <time>2022-08-18T18:53:12Z</time>
      </trkpt>
      <trkpt lat="49.2357" lon="7.14462">
        <ele>378.1</ele>
        <time>2022-08-18T18:53:17Z</time>
      </trkpt>
      <trkpt lat="49.23575" lon="7.14476">
        <ele>378.3</ele>
        <time>2022-08-18T18:53:25Z</time>
      </trkpt>
      <trkpt lat="49.23579" lon="7.14489">
        <ele>378.4</ele>
        <time>2022-08-18T18:53:33Z</time>
      </trkpt>
      <trkpt lat="49.23583" lon="7.14504">
        <ele>378.6</ele>
        <time>2022-08-18T18:53:41Z</time>
      </trkpt>
      <trkpt lat="49.23589" lon="7.14517">
        <ele>378.8</ele>
        <time>2022-08-18T18:53:46Z</time>
      </trkpt>
      <trkpt lat="49.23595" lon="7.14529">
        <ele>378.9</ele>
        <time>2022-08-18T18:53:53Z</time>
      </trkpt>
      <trkpt lat="49.23601" lon="7.14541">
        <ele>379.1</ele>
        <time>2022-08-18T18:54:01Z</time>
      </trkpt>
      <trkpt lat="49.23605" lon="7.14555">
        <ele>379.2</ele>
        <time>2022-08-18T18:54:06Z</time>
      </trkpt>
      <trkpt lat="49.2361" lon="7.1457">
        <ele>379.3</ele>
        <time>2022-08-18T18:54:09Z</time>
      </trkpt>
      <trkpt lat="49.23614" lon="7.14584">
        <ele>379.4</ele>
        <time>2022-08-18T18:54:12Z</time>
      </trkpt>
      <trkpt lat="49.23618" lon="7.14597">
        <ele>379.4</ele>
        <time>2022-08-18T18:54:15Z</time>
      </trkpt>
      <trkpt lat="49.23623" lon="7.14611">
        <ele>379.5</ele>
        <time>2022-08-18T18:54:18Z</time>
      </trkpt>
      <trkpt lat="49.23628" lon="7.14624">
        <ele>379.6</ele>
        <time>2022-08-18T18:54:21Z</time>
      </trkpt>
      <trkpt lat="49.23631" lon="7.14639">
        <ele>379.6</ele>
        <time>2022-08-18T18:54:25Z</time>
      </trkpt>
      <trkpt lat="49.23632" lon="7.14658">
        <ele>379.6</ele>
        <time>2022-08-18T18:54:29Z</time>
      </trkpt>
      <trkpt lat="49.23635" lon="7.14676">
        <ele>379.6</ele>
        <time>2022-08-18T18:54:33Z</time>
      </trkpt>
      <trkpt lat="49.23637" lon="7.1469">
        <ele>379.5</ele>
        <time>2022-08-18T18:54:37Z</time>
      </trkpt>
      <trkpt lat="49.23638" lon="7.14705">
        <ele>379.4</ele>
        <time>2022-08-18T18:54:42Z</time>
      </trkpt>
      <trkpt lat="49.23639" lon="7.14722">
        <ele>379.3</ele>
        <time>2022-08-18T18:54:46Z</time>
      </trkpt>
      <trkpt lat="49.23641" lon="7.14738">
        <ele>379.2</ele>
        <time>2022-08-18T18:54:50Z</time>
      </trkpt>
      <trkpt lat="49.23643" lon="7.14753">
        <ele>379</ele>
        <time>2022-08-18T18:54:54Z</time>
      </trkpt>
      <trkpt lat="49.23644" lon="7.14767">
        <ele>378.8</ele>
        <time>2022-08-18T18:54:58Z</time>
      </trkpt>
      <trkpt lat="49.23646" lon="7.14781">
        <ele>378.6</ele>
        <time>2022-08-18T18:55:02Z</time>
      </trkpt>
      <trkpt lat="49.23645" lon="7.14797">
        <ele>378.3</ele>
        <time>2022-08-18T18:55:06Z</time>
      </trkpt>
      <trkpt lat="49.23645" lon="7.14811">
        <ele>378.1</ele>
        <time>2022-08-18T18:55:09Z</time>
      </trkpt>
      <trkpt lat="49.23646" lon="7.14826">
        <ele>377.8</ele>
        <time>2022-08-18T18:55:12Z</time>
      </trkpt>
      <trkpt lat="49.23646" lon="7.14842">
        <ele>377.5</ele>
        <time>2022-08-18T18:55:15Z</time>
      </trkpt>
      <trkpt lat="49.23646" lon="7.14857">
        <ele>377.3</ele>
        <time>2022-08-18T18:55:18Z</time>
      </trkpt>
      <trkpt lat="49.23648" lon="7.14873">
        <ele>377</ele>
        <time>2022-08-18T18:55:21Z</time>
      </trkpt>
      <trkpt lat="49.23647" lon="7.14888">
        <ele>376.7</ele>
        <time>2022-08-18T18:55:24Z</time>
      </trkpt>
      <trkpt lat="49.23646" lon="7.14902">
        <ele>376.5</ele>
        <time>2022-08-18T18:55:27Z</time>
      </trkpt>
      <trkpt lat="49.23646" lon="7.1492">
        <ele>376.1</ele>
        <time>2022-08-18T18:55:31Z</time>
      </trkpt>
      <trkpt lat="49.23647" lon="7.14936">
        <ele>375.7</ele>
        <time>2022-08-18T18:55:34Z</time>
      </trkpt>
      <trkpt lat="49.23649" lon="7.14955">
        <ele>375.2</ele>
        <time>2022-08-18T18:55:37Z</time>
      </trkpt>
      <trkpt lat="49.2365" lon="7.14971">
        <ele>374.9</ele>
        <time>2022-08-18T18:55:39Z</time>
      </trkpt>
      <trkpt lat="49.2365" lon="7.14986">
        <ele>374.6</ele>
        <time>2022-08-18T18:55:41Z</time>
      </trkpt>
      <trkpt lat="49.23651" lon="7.15001">
        <ele>374.4</ele>
        <time>2022-08-18T18:55:43Z</time>
      </trkpt>
      <trkpt lat="49.2365" lon="7.15016">
        <ele>374.2</ele>
        <time>2022-08-18T18:55:45Z</time>
      </trkpt>
      <trkpt lat="49.23651" lon="7.15031">
        <ele>374.1</ele>
        <time>2022-08-18T18:55:47Z</time>
      </trkpt>
      <trkpt lat="49.23652" lon="7.1505">
        <ele>373.9</ele>
        <time>2022-08-18T18:55:50Z</time>
      </trkpt>
      <trkpt lat="49.23654" lon="7.15066">
        <ele>373.7</ele>
        <time>2022-08-18T18:55:53Z</time>
      </trkpt>
      <trkpt lat="49.23656" lon="7.15079">
        <ele>373.5</ele>
        <time>2022-08-18T18:55:56Z</time>
      </trkpt>
      <trkpt lat="49.23657" lon="7.15096">
        <ele>373.3</ele>
        <time>2022-08-18T18:56:00Z</time>
      </trkpt>
      <trkpt lat="49.23658" lon="7.15114">
        <ele>373.1</ele>
        <time>2022-08-18T18:56:04Z</time>
      </trkpt>
      <trkpt lat="49.23659" lon="7.15131">
        <ele>373.1</ele>
        <time>2022-08-18T18:56:08Z</time>
      </trkpt>
      <trkpt lat="49.23662" lon="7.15145">
        <ele>373.1</ele>
        <time>2022-08-18T18:56:11Z</time>
      </trkpt>
      <trkpt lat="49.23665" lon="7.15161">
        <ele>373</ele>
        <time>2022-08-18T18:56:15Z</time>
      </trkpt>
      <trkpt lat="49.23666" lon="7.15177">
        <ele>373</ele>
        <time>2022-08-18T18:56:20Z</time>
      </trkpt>
      <trkpt lat="49.23658" lon="7.15186">
        <ele>372.9</ele>
        <time>2022-08-18T18:56:26Z</time>
      </trkpt>
      <trkpt lat="49.23658" lon="7.15186">
        <ele>372.9</ele>
        <time>2022-08-18T18:56:46Z</time>
      </trkpt>
      <trkpt lat="49.23657" lon="7.15186">
        <ele>372.8</ele>
        <time>2022-08-18T18:57:20Z</time>
      </trkpt>
      <trkpt lat="49.23657" lon="7.15186">
        <ele>372.8</ele>
        <time>2022-08-18T18:57:20Z</time>
      </trkpt>
      <trkpt lat="49.23657" lon="7.15186">
        <ele>372.8</ele>
        <time>2022-08-18T18:57:20Z</time>
      </trkpt>
    </trkseg>
  </trk>
</gpx>